Larkspur — C6BR6 — position and weather

sailwx.info

Track history (hours):
 
Tides and Currents Weather Stations Pressure Air Temp Water Temp Dewpoint Dewpoint Depression Visibility Wind Speed Wind Dir Waves Ship Positions

Larkspur

Operator: Transeuropa Lines

Last reported at 2018-Nov-07 23:09 UTC. Time now 2018-Nov-14 03:24 UTC.
Position N 09°16' W 079°55'.

Length 225 m; draft 8 m.

Type: Tanker. MMSI: 311000344.

Date/timePositionNaut miles runAvg speedWind from/ knotsBaromVisibWave heightAir tempDewpointWater temp
2018-Nov-07 23:09N 09°16' W 079°55'0 0.0
2018-Nov-07 23:02N 09°16' W 079°55'1 1.0
2018-Nov-07 22:09N 09°15' W 079°54'0 0.0
2018-Nov-07 21:57N 09°15' W 079°54'0 0.1
2018-Nov-07 21:13N 09°15' W 079°54'0 0.1
2018-Nov-07 17:37N 09°15' W 079°55'1 4.7
2018-Nov-07 17:24N 09°14' W 079°55'  
2018-Oct-29 20:56N 26°32' W 116°34'817.2
2018-Oct-29 20:29N 26°36' W 116°41'1517.1
2018-Oct-29 19:36N 26°45' W 116°54'217.1
2018-Oct-29 19:31N 26°46' W 116°56'817.1
2018-Oct-29 19:04N 26°51' W 117°02'416.9
2018-Oct-29 18:51N 26°53' W 117°05'3716.9
2018-Oct-29 16:40N 27°16' W 117°38'316.9
2018-Oct-29 16:28N 27°18' W 117°41'1117.3
2018-Oct-29 15:48N 27°25' W 117°52'1417.4
2018-Oct-29 14:58N 27°33' W 118°05'6017.1
2018-Oct-29 11:28N 28°10' W 118°58'716.8
2018-Oct-29 11:04N 28°15' W 119°04'117.5
2018-Oct-29 11:00N 28°15' W 119°05'916.9
2018-Oct-29 10:30N 28°21' W 119°13'816.9
2018-Oct-29 10:03N 28°25' W 119°19'117.2
2018-Oct-29 10:00N 28°26' W 119°20'817.0
2018-Oct-29 09:30N 28°31' W 119°28'817.0
2018-Oct-29 09:03N 28°35' W 119°35'116.5
2018-Oct-29 09:00N 28°36' W 119°36'917.1
2018-Oct-29 08:29N 28°41' W 119°44'717.0
2018-Oct-29 08:04N 28°46' W 119°50'117.1
2018-Oct-29 08:01N 28°46' W 119°51'817.0
2018-Oct-29 07:31N 28°51' W 119°59'917.0
2018-Oct-29 07:00N 28°56' W 120°07'916.9
2018-Oct-29 06:28N 29°02' W 120°15'1816.8
2018-Oct-29 05:22N 29°13' W 120°32'1516.9
2018-Oct-29 04:29N 29°22' W 120°45'2817.0
2018-Oct-29 02:51N 29°40' W 121°10'917.2
2018-Oct-29 02:19N 29°45' W 121°18'817.2
2018-Oct-29 01:50N 29°51' W 121°26'4117.3
2018-Oct-28 23:29N 30°15' W 122°03'  
Track history (hours):
 
Tides and Currents Weather Stations Pressure Air Temp Water Temp Dewpoint Dewpoint Depression Visibility Wind Speed Wind Dir Waves Ship Positions

Larkspur

Operator: Transeuropa Lines

Last reported at 2018-Nov-07 23:09 UTC. Time now 2018-Nov-14 03:24 UTC.
Position N 09°16' W 079°55'.

Length 225 m; draft 8 m.

Type: Tanker. MMSI: 311000344.

Date/timePositionNaut miles runAvg speedWind from/ knotsBaromVisibWave heightAir tempDewpointWater temp
2018-Nov-07 23:09N 09°16' W 079°55'0 0.0
2018-Nov-07 23:02N 09°16' W 079°55'1 1.0
2018-Nov-07 22:09N 09°15' W 079°54'0 0.0
2018-Nov-07 21:57N 09°15' W 079°54'0 0.1
2018-Nov-07 21:13N 09°15' W 079°54'0 0.1
2018-Nov-07 17:37N 09°15' W 079°55'1 4.7
2018-Nov-07 17:24N 09°14' W 079°55'  
2018-Oct-29 20:56N 26°32' W 116°34'817.2
2018-Oct-29 20:29N 26°36' W 116°41'1517.1
2018-Oct-29 19:36N 26°45' W 116°54'217.1
2018-Oct-29 19:31N 26°46' W 116°56'817.1
2018-Oct-29 19:04N 26°51' W 117°02'416.9
2018-Oct-29 18:51N 26°53' W 117°05'3716.9
2018-Oct-29 16:40N 27°16' W 117°38'316.9
2018-Oct-29 16:28N 27°18' W 117°41'1117.3
2018-Oct-29 15:48N 27°25' W 117°52'1417.4
2018-Oct-29 14:58N 27°33' W 118°05'6017.1
2018-Oct-29 11:28N 28°10' W 118°58'716.8
2018-Oct-29 11:04N 28°15' W 119°04'117.5
2018-Oct-29 11:00N 28°15' W 119°05'916.9
2018-Oct-29 10:30N 28°21' W 119°13'816.9
2018-Oct-29 10:03N 28°25' W 119°19'117.2
2018-Oct-29 10:00N 28°26' W 119°20'817.0
2018-Oct-29 09:30N 28°31' W 119°28'817.0
2018-Oct-29 09:03N 28°35' W 119°35'116.5
2018-Oct-29 09:00N 28°36' W 119°36'917.1
2018-Oct-29 08:29N 28°41' W 119°44'717.0
2018-Oct-29 08:04N 28°46' W 119°50'117.1
2018-Oct-29 08:01N 28°46' W 119°51'817.0
2018-Oct-29 07:31N 28°51' W 119°59'917.0
2018-Oct-29 07:00N 28°56' W 120°07'916.9
2018-Oct-29 06:28N 29°02' W 120°15'1816.8
2018-Oct-29 05:22N 29°13' W 120°32'1516.9
2018-Oct-29 04:29N 29°22' W 120°45'2817.0
2018-Oct-29 02:51N 29°40' W 121°10'917.2
2018-Oct-29 02:19N 29°45' W 121°18'817.2
2018-Oct-29 01:50N 29°51' W 121°26'4117.3
2018-Oct-28 23:29N 30°15' W 122°03'  

Dump ship's entire track history